sensor_id;sensor_type;location;lat;lon;timestamp;P1;durP1;ratioP1;P2;durP2;ratioP2
48935;SDS011;34745;52.276;10.528;2023-02-15T00:02:01;78.47;;;41.43;;
48935;SDS011;34745;52.276;10.528;2023-02-15T00:04:29;79.27;;;42.23;;
48935;SDS011;34745;52.276;10.528;2023-02-15T00:07:15;78.47;;;41.83;;
48935;SDS011;34745;52.276;10.528;2023-02-15T00:09:44;87.33;;;43.47;;
48935;SDS011;34745;52.276;10.528;2023-02-15T00:12:11;77.03;;;41.80;;
48935;SDS011;34745;52.276;10.528;2023-02-15T00:14:38;75.50;;;40.27;;
48935;SDS011;34745;52.276;10.528;2023-02-15T00:17:05;84.73;;;42.53;;
48935;SDS011;34745;52.276;10.528;2023-02-15T00:19:32;74.90;;;40.27;;
48935;SDS011;34745;52.276;10.528;2023-02-15T00:21:59;59.47;;;36.50;;
48935;SDS011;34745;52.276;10.528;2023-02-15T00:24:28;56.80;;;33.93;;
48935;SDS011;34745;52.276;10.528;2023-02-15T00:26:55;58.33;;;34.53;;
48935;SDS011;34745;52.276;10.528;2023-02-15T00:29:22;59.87;;;34.40;;
48935;SDS011;34745;52.276;10.528;2023-02-15T00:31:50;62.47;;;37.13;;
48935;SDS011;34745;52.276;10.528;2023-02-15T00:34:20;62.33;;;36.90;;
48935;SDS011;34745;52.276;10.528;2023-02-15T00:36:48;64.30;;;36.33;;
48935;SDS011;34745;52.276;10.528;2023-02-15T00:39:16;66.17;;;37.20;;
48935;SDS011;34745;52.276;10.528;2023-02-15T00:41:45;61.80;;;34.83;;
48935;SDS011;34745;52.276;10.528;2023-02-15T00:44:13;63.27;;;36.20;;
48935;SDS011;34745;52.276;10.528;2023-02-15T00:46:41;65.20;;;35.97;;
48935;SDS011;34745;52.276;10.528;2023-02-15T00:49:08;66.40;;;36.97;;
48935;SDS011;34745;52.276;10.528;2023-02-15T00:51:35;67.80;;;37.30;;
48935;SDS011;34745;52.276;10.528;2023-02-15T00:54:03;68.80;;;36.57;;
48935;SDS011;34745;52.276;10.528;2023-02-15T00:56:30;63.73;;;36.60;;
48935;SDS011;34745;52.276;10.528;2023-02-15T00:58:59;67.17;;;37.10;;
48935;SDS011;34745;52.276;10.528;2023-02-15T01:01:25;60.87;;;36.00;;
48935;SDS011;34745;52.276;10.528;2023-02-15T01:03:53;59.83;;;35.37;;
48935;SDS011;34745;52.276;10.528;2023-02-15T01:06:20;64.70;;;35.50;;
48935;SDS011;34745;52.276;10.528;2023-02-15T01:08:47;71.40;;;37.90;;
48935;SDS011;34745;52.276;10.528;2023-02-15T01:11:15;63.07;;;35.70;;
48935;SDS011;34745;52.276;10.528;2023-02-15T01:13:50;71.27;;;36.33;;
48935;SDS011;34745;52.276;10.528;2023-02-15T01:16:20;62.93;;;36.17;;
48935;SDS011;34745;52.276;10.528;2023-02-15T01:18:48;67.73;;;35.67;;
48935;SDS011;34745;52.276;10.528;2023-02-15T01:21:16;69.03;;;36.60;;
48935;SDS011;34745;52.276;10.528;2023-02-15T01:23:46;68.07;;;36.53;;
48935;SDS011;34745;52.276;10.528;2023-02-15T01:26:13;69.17;;;37.20;;
48935;SDS011;34745;52.276;10.528;2023-02-15T01:28:41;71.13;;;36.87;;
48935;SDS011;34745;52.276;10.528;2023-02-15T01:31:09;68.60;;;36.07;;
48935;SDS011;34745;52.276;10.528;2023-02-15T01:33:39;72.17;;;35.50;;
48935;SDS011;34745;52.276;10.528;2023-02-15T01:36:07;70.93;;;36.40;;
48935;SDS011;34745;52.276;10.528;2023-02-15T01:38:34;75.43;;;36.87;;
48935;SDS011;34745;52.276;10.528;2023-02-15T01:41:02;75.50;;;38.30;;
48935;SDS011;34745;52.276;10.528;2023-02-15T01:43:49;68.83;;;36.17;;
48935;SDS011;34745;52.276;10.528;2023-02-15T01:46:17;72.50;;;34.97;;
48935;SDS011;34745;52.276;10.528;2023-02-15T01:48:48;72.83;;;36.43;;
48935;SDS011;34745;52.276;10.528;2023-02-15T01:51:21;70.50;;;36.97;;
48935;SDS011;34745;52.276;10.528;2023-02-15T01:53:55;72.57;;;37.60;;
48935;SDS011;34745;52.276;10.528;2023-02-15T01:56:27;82.97;;;37.87;;
48935;SDS011;34745;52.276;10.528;2023-02-15T01:58:59;74.30;;;38.57;;
48935;SDS011;34745;52.276;10.528;2023-02-15T02:01:29;80.50;;;38.50;;
48935;SDS011;34745;52.276;10.528;2023-02-15T02:04:01;70.23;;;37.20;;
48935;SDS011;34745;52.276;10.528;2023-02-15T02:06:33;74.00;;;38.03;;
48935;SDS011;34745;52.276;10.528;2023-02-15T02:09:02;76.27;;;37.63;;
48935;SDS011;34745;52.276;10.528;2023-02-15T02:11:30;73.87;;;36.57;;
48935;SDS011;34745;52.276;10.528;2023-02-15T02:13:57;76.80;;;39.40;;
48935;SDS011;34745;52.276;10.528;2023-02-15T02:16:25;81.53;;;40.30;;
48935;SDS011;34745;52.276;10.528;2023-02-15T02:19:01;81.10;;;37.87;;
48935;SDS011;34745;52.276;10.528;2023-02-15T02:21:56;73.47;;;38.07;;
48935;SDS011;34745;52.276;10.528;2023-02-15T02:25:08;78.57;;;37.20;;
48935;SDS011;34745;52.276;10.528;2023-02-15T02:27:50;76.33;;;38.53;;
48935;SDS011;34745;52.276;10.528;2023-02-15T02:33:45;73.67;;;37.53;;
48935;SDS011;34745;52.276;10.528;2023-02-15T02:36:22;77.70;;;38.40;;
48935;SDS011;34745;52.276;10.528;2023-02-15T02:38:59;76.70;;;38.20;;
48935;SDS011;34745;52.276;10.528;2023-02-15T02:41:42;78.00;;;39.70;;
48935;SDS011;34745;52.276;10.528;2023-02-15T02:44:17;72.37;;;38.07;;
48935;SDS011;34745;52.276;10.528;2023-02-15T02:46:51;75.13;;;37.33;;
48935;SDS011;34745;52.276;10.528;2023-02-15T02:49:31;71.27;;;36.03;;
48935;SDS011;34745;52.276;10.528;2023-02-15T02:52:00;68.80;;;35.83;;
48935;SDS011;34745;52.276;10.528;2023-02-15T02:54:29;71.87;;;37.10;;
48935;SDS011;34745;52.276;10.528;2023-02-15T02:56:58;68.87;;;37.17;;
48935;SDS011;34745;52.276;10.528;2023-02-15T02:59:29;67.93;;;35.13;;
48935;SDS011;34745;52.276;10.528;2023-02-15T03:02:00;73.43;;;35.77;;
48935;SDS011;34745;52.276;10.528;2023-02-15T03:04:32;71.07;;;35.33;;
48935;SDS011;34745;52.276;10.528;2023-02-15T03:07:04;63.87;;;34.80;;
48935;SDS011;34745;52.276;10.528;2023-02-15T03:09:36;67.67;;;33.67;;
48935;SDS011;34745;52.276;10.528;2023-02-15T03:12:09;66.80;;;34.63;;
48935;SDS011;34745;52.276;10.528;2023-02-15T03:14:39;63.67;;;34.93;;
48935;SDS011;34745;52.276;10.528;2023-02-15T03:17:09;64.23;;;33.77;;
48935;SDS011;34745;52.276;10.528;2023-02-15T03:19:40;61.50;;;33.07;;
48935;SDS011;34745;52.276;10.528;2023-02-15T03:22:12;59.97;;;32.17;;
48935;SDS011;34745;52.276;10.528;2023-02-15T03:24:46;62.43;;;33.30;;
48935;SDS011;34745;52.276;10.528;2023-02-15T03:27:21;61.10;;;33.20;;
48935;SDS011;34745;52.276;10.528;2023-02-15T03:29:51;55.73;;;32.60;;
48935;SDS011;34745;52.276;10.528;2023-02-15T03:32:22;59.77;;;31.17;;
48935;SDS011;34745;52.276;10.528;2023-02-15T03:34:52;61.50;;;32.97;;
48935;SDS011;34745;52.276;10.528;2023-02-15T03:37:20;54.43;;;31.67;;
48935;SDS011;34745;52.276;10.528;2023-02-15T03:39:53;59.87;;;32.13;;
48935;SDS011;34745;52.276;10.528;2023-02-15T03:42:24;61.77;;;32.70;;
48935;SDS011;34745;52.276;10.528;2023-02-15T03:44:56;57.50;;;31.73;;
48935;SDS011;34745;52.276;10.528;2023-02-15T03:47:27;61.27;;;32.57;;
48935;SDS011;34745;52.276;10.528;2023-02-15T03:49:59;58.67;;;33.07;;
48935;SDS011;34745;52.276;10.528;2023-02-15T03:52:29;61.07;;;31.77;;
48935;SDS011;34745;52.276;10.528;2023-02-15T03:54:59;58.40;;;32.57;;
48935;SDS011;34745;52.276;10.528;2023-02-15T03:57:27;66.03;;;33.80;;
48935;SDS011;34745;52.276;10.528;2023-02-15T04:00:14;64.50;;;33.53;;
48935;SDS011;34745;52.276;10.528;2023-02-15T04:03:07;67.13;;;32.50;;
48935;SDS011;34745;52.276;10.528;2023-02-15T04:05:40;67.10;;;33.37;;
48935;SDS011;34745;52.276;10.528;2023-02-15T04:08:08;70.53;;;33.67;;
48935;SDS011;34745;52.276;10.528;2023-02-15T04:10:36;64.23;;;32.87;;
48935;SDS011;34745;52.276;10.528;2023-02-15T04:13:22;65.30;;;32.80;;
48935;SDS011;34745;52.276;10.528;2023-02-15T04:15:50;63.23;;;32.93;;
48935;SDS011;34745;52.276;10.528;2023-02-15T04:18:34;63.77;;;32.57;;
48935;SDS011;34745;52.276;10.528;2023-02-15T04:21:23;67.90;;;33.80;;
48935;SDS011;34745;52.276;10.528;2023-02-15T04:24:10;64.90;;;31.93;;
48935;SDS011;34745;52.276;10.528;2023-02-15T04:26:56;66.47;;;34.80;;
48935;SDS011;34745;52.276;10.528;2023-02-15T04:29:24;63.97;;;34.47;;
48935;SDS011;34745;52.276;10.528;2023-02-15T04:31:53;60.73;;;31.77;;
48935;SDS011;34745;52.276;10.528;2023-02-15T04:34:21;59.97;;;32.77;;
48935;SDS011;34745;52.276;10.528;2023-02-15T04:36:50;61.47;;;33.40;;
48935;SDS011;34745;52.276;10.528;2023-02-15T04:39:17;59.13;;;32.13;;
48935;SDS011;34745;52.276;10.528;2023-02-15T04:41:45;61.80;;;32.53;;
48935;SDS011;34745;52.276;10.528;2023-02-15T04:44:14;59.73;;;32.47;;
48935;SDS011;34745;52.276;10.528;2023-02-15T04:46:41;55.87;;;31.13;;
48935;SDS011;34745;52.276;10.528;2023-02-15T04:49:08;60.53;;;32.90;;
48935;SDS011;34745;52.276;10.528;2023-02-15T04:51:36;58.47;;;32.20;;
48935;SDS011;34745;52.276;10.528;2023-02-15T04:54:04;57.77;;;31.17;;
48935;SDS011;34745;52.276;10.528;2023-02-15T04:56:31;63.93;;;32.37;;
48935;SDS011;34745;52.276;10.528;2023-02-15T04:59:01;58.63;;;32.23;;
48935;SDS011;34745;52.276;10.528;2023-02-15T05:01:28;61.83;;;31.17;;
48935;SDS011;34745;52.276;10.528;2023-02-15T05:03:55;55.80;;;31.73;;
48935;SDS011;34745;52.276;10.528;2023-02-15T05:06:22;56.53;;;31.00;;
48935;SDS011;34745;52.276;10.528;2023-02-15T05:08:49;53.60;;;29.40;;
48935;SDS011;34745;52.276;10.528;2023-02-15T05:11:18;56.80;;;31.47;;
48935;SDS011;34745;52.276;10.528;2023-02-15T05:13:45;55.07;;;29.97;;
48935;SDS011;34745;52.276;10.528;2023-02-15T05:16:13;55.03;;;29.50;;
48935;SDS011;34745;52.276;10.528;2023-02-15T05:18:40;55.27;;;30.30;;
48935;SDS011;34745;52.276;10.528;2023-02-15T05:21:07;56.57;;;30.83;;
48935;SDS011;34745;52.276;10.528;2023-02-15T05:23:35;49.23;;;28.87;;
48935;SDS011;34745;52.276;10.528;2023-02-15T05:26:02;49.13;;;29.97;;
48935;SDS011;34745;52.276;10.528;2023-02-15T05:28:49;53.80;;;29.27;;
48935;SDS011;34745;52.276;10.528;2023-02-15T05:31:17;51.23;;;29.20;;
48935;SDS011;34745;52.276;10.528;2023-02-15T05:33:45;49.97;;;28.97;;
48935;SDS011;34745;52.276;10.528;2023-02-15T05:36:13;52.43;;;28.30;;
48935;SDS011;34745;52.276;10.528;2023-02-15T05:38:40;50.70;;;28.70;;
48935;SDS011;34745;52.276;10.528;2023-02-15T05:41:08;48.60;;;28.67;;
48935;SDS011;34745;52.276;10.528;2023-02-15T05:43:36;47.50;;;27.73;;
48935;SDS011;34745;52.276;10.528;2023-02-15T05:46:04;54.43;;;30.07;;
48935;SDS011;34745;52.276;10.528;2023-02-15T05:48:32;51.83;;;29.20;;
48935;SDS011;34745;52.276;10.528;2023-02-15T05:51:01;49.70;;;28.67;;
48935;SDS011;34745;52.276;10.528;2023-02-15T05:53:30;49.27;;;29.47;;
48935;SDS011;34745;52.276;10.528;2023-02-15T05:55:59;51.63;;;29.47;;
48935;SDS011;34745;52.276;10.528;2023-02-15T05:58:28;51.33;;;28.53;;
48935;SDS011;34745;52.276;10.528;2023-02-15T06:00:56;52.33;;;29.23;;
48935;SDS011;34745;52.276;10.528;2023-02-15T06:03:25;52.20;;;29.80;;
48935;SDS011;34745;52.276;10.528;2023-02-15T06:05:54;56.43;;;30.37;;
48935;SDS011;34745;52.276;10.528;2023-02-15T06:08:22;48.27;;;27.80;;
48935;SDS011;34745;52.276;10.528;2023-02-15T06:10:48;53.20;;;28.10;;
48935;SDS011;34745;52.276;10.528;2023-02-15T06:13:16;46.77;;;27.37;;
48935;SDS011;34745;52.276;10.528;2023-02-15T06:15:43;46.50;;;26.83;;
48935;SDS011;34745;52.276;10.528;2023-02-15T06:18:10;46.93;;;28.07;;
48935;SDS011;34745;52.276;10.528;2023-02-15T06:20:38;52.80;;;26.63;;
48935;SDS011;34745;52.276;10.528;2023-02-15T06:23:05;48.40;;;28.73;;
48935;SDS011;34745;52.276;10.528;2023-02-15T06:25:32;49.60;;;27.53;;
48935;SDS011;34745;52.276;10.528;2023-02-15T06:28:02;47.80;;;29.00;;
48935;SDS011;34745;52.276;10.528;2023-02-15T06:30:29;46.57;;;27.73;;
48935;SDS011;34745;52.276;10.528;2023-02-15T06:32:56;44.80;;;26.13;;
48935;SDS011;34745;52.276;10.528;2023-02-15T06:35:23;44.50;;;25.67;;
48935;SDS011;34745;52.276;10.528;2023-02-15T06:37:52;45.73;;;26.70;;
48935;SDS011;34745;52.276;10.528;2023-02-15T06:40:19;41.70;;;25.67;;
48935;SDS011;34745;52.276;10.528;2023-02-15T06:42:46;44.20;;;25.57;;
48935;SDS011;34745;52.276;10.528;2023-02-15T06:45:14;45.00;;;26.83;;
48935;SDS011;34745;52.276;10.528;2023-02-15T06:47:41;44.87;;;26.07;;
48935;SDS011;34745;52.276;10.528;2023-02-15T06:50:08;42.60;;;25.80;;
48935;SDS011;34745;52.276;10.528;2023-02-15T06:52:36;47.50;;;27.90;;
48935;SDS011;34745;52.276;10.528;2023-02-15T06:55:05;47.17;;;27.33;;
48935;SDS011;34745;52.276;10.528;2023-02-15T06:57:32;43.27;;;26.03;;
48935;SDS011;34745;52.276;10.528;2023-02-15T07:00:00;49.17;;;28.33;;
48935;SDS011;34745;52.276;10.528;2023-02-15T07:02:27;47.27;;;28.93;;
48935;SDS011;34745;52.276;10.528;2023-02-15T07:04:55;44.47;;;27.87;;
48935;SDS011;34745;52.276;10.528;2023-02-15T07:07:22;43.83;;;26.07;;
48935;SDS011;34745;52.276;10.528;2023-02-15T07:09:49;45.30;;;26.73;;
48935;SDS011;34745;52.276;10.528;2023-02-15T07:12:17;42.30;;;26.47;;
48935;SDS011;34745;52.276;10.528;2023-02-15T07:15:03;44.37;;;25.30;;
48935;SDS011;34745;52.276;10.528;2023-02-15T07:17:33;41.73;;;25.07;;
48935;SDS011;34745;52.276;10.528;2023-02-15T07:20:02;39.10;;;23.97;;
48935;SDS011;34745;52.276;10.528;2023-02-15T07:22:30;37.77;;;24.77;;
48935;SDS011;34745;52.276;10.528;2023-02-15T07:24:57;40.37;;;25.17;;
48935;SDS011;34745;52.276;10.528;2023-02-15T07:27:25;47.17;;;25.83;;
48935;SDS011;34745;52.276;10.528;2023-02-15T07:29:52;41.73;;;26.10;;
48935;SDS011;34745;52.276;10.528;2023-02-15T07:32:20;46.87;;;26.40;;
48935;SDS011;34745;52.276;10.528;2023-02-15T07:34:47;40.83;;;25.93;;
48935;SDS011;34745;52.276;10.528;2023-02-15T07:37:14;42.30;;;26.53;;
48935;SDS011;34745;52.276;10.528;2023-02-15T07:39:40;42.13;;;26.17;;
48935;SDS011;34745;52.276;10.528;2023-02-15T07:42:08;38.03;;;24.47;;
48935;SDS011;34745;52.276;10.528;2023-02-15T07:44:36;40.40;;;25.80;;
48935;SDS011;34745;52.276;10.528;2023-02-15T07:47:04;39.37;;;24.60;;
48935;SDS011;34745;52.276;10.528;2023-02-15T07:49:31;39.87;;;25.50;;
48935;SDS011;34745;52.276;10.528;2023-02-15T07:52:00;37.63;;;24.40;;
48935;SDS011;34745;52.276;10.528;2023-02-15T07:54:27;42.30;;;25.13;;
48935;SDS011;34745;52.276;10.528;2023-02-15T07:56:55;35.27;;;24.33;;
48935;SDS011;34745;52.276;10.528;2023-02-15T07:59:22;39.87;;;25.03;;
48935;SDS011;34745;52.276;10.528;2023-02-15T08:01:51;41.70;;;26.17;;
48935;SDS011;34745;52.276;10.528;2023-02-15T08:04:20;35.43;;;24.17;;
48935;SDS011;34745;52.276;10.528;2023-02-15T08:06:47;38.10;;;24.07;;
48935;SDS011;34745;52.276;10.528;2023-02-15T08:09:18;39.77;;;23.77;;
48935;SDS011;34745;52.276;10.528;2023-02-15T08:11:46;36.17;;;23.03;;
48935;SDS011;34745;52.276;10.528;2023-02-15T08:14:14;38.30;;;23.43;;
48935;SDS011;34745;52.276;10.528;2023-02-15T08:16:43;33.07;;;22.03;;
48935;SDS011;34745;52.276;10.528;2023-02-15T08:19:13;33.00;;;23.07;;
48935;SDS011;34745;52.276;10.528;2023-02-15T08:21:42;37.43;;;22.77;;
48935;SDS011;34745;52.276;10.528;2023-02-15T08:24:11;33.00;;;21.10;;
48935;SDS011;34745;52.276;10.528;2023-02-15T08:26:40;34.27;;;22.03;;
48935;SDS011;34745;52.276;10.528;2023-02-15T08:29:08;31.80;;;22.07;;
48935;SDS011;34745;52.276;10.528;2023-02-15T08:31:36;33.67;;;22.17;;
48935;SDS011;34745;52.276;10.528;2023-02-15T08:34:04;33.60;;;21.27;;
48935;SDS011;34745;52.276;10.528;2023-02-15T08:36:33;36.37;;;22.70;;
48935;SDS011;34745;52.276;10.528;2023-02-15T08:39:01;40.73;;;25.07;;
48935;SDS011;34745;52.276;10.528;2023-02-15T08:41:30;33.20;;;21.73;;
48935;SDS011;34745;52.276;10.528;2023-02-15T08:44:00;26.23;;;19.13;;
48935;SDS011;34745;52.276;10.528;2023-02-15T08:46:29;26.43;;;19.47;;
48935;SDS011;34745;52.276;10.528;2023-02-15T08:48:58;31.90;;;19.27;;
48935;SDS011;34745;52.276;10.528;2023-02-15T08:51:26;27.73;;;18.73;;
48935;SDS011;34745;52.276;10.528;2023-02-15T08:53:57;23.63;;;17.57;;
48935;SDS011;34745;52.276;10.528;2023-02-15T08:56:25;27.07;;;18.17;;
48935;SDS011;34745;52.276;10.528;2023-02-15T08:58:54;22.13;;;15.67;;
48935;SDS011;34745;52.276;10.528;2023-02-15T09:01:23;21.47;;;15.90;;
48935;SDS011;34745;52.276;10.528;2023-02-15T09:03:51;20.63;;;15.40;;
48935;SDS011;34745;52.276;10.528;2023-02-15T09:06:22;28.27;;;16.73;;
48935;SDS011;34745;52.276;10.528;2023-02-15T09:08:49;22.57;;;15.77;;
48935;SDS011;34745;52.276;10.528;2023-02-15T09:11:19;25.80;;;15.07;;
48935;SDS011;34745;52.276;10.528;2023-02-15T09:13:52;23.47;;;14.90;;
48935;SDS011;34745;52.276;10.528;2023-02-15T09:16:21;22.73;;;14.23;;
48935;SDS011;34745;52.276;10.528;2023-02-15T09:18:50;18.50;;;13.93;;
48935;SDS011;34745;52.276;10.528;2023-02-15T09:21:19;22.50;;;15.43;;
48935;SDS011;34745;52.276;10.528;2023-02-15T09:23:48;26.00;;;14.97;;
48935;SDS011;34745;52.276;10.528;2023-02-15T09:26:18;20.90;;;14.97;;
48935;SDS011;34745;52.276;10.528;2023-02-15T09:28:47;20.83;;;12.90;;
48935;SDS011;34745;52.276;10.528;2023-02-15T09:31:18;22.33;;;13.73;;
48935;SDS011;34745;52.276;10.528;2023-02-15T09:33:48;18.70;;;13.17;;
48935;SDS011;34745;52.276;10.528;2023-02-15T09:36:16;21.80;;;14.20;;
48935;SDS011;34745;52.276;10.528;2023-02-15T09:38:45;17.07;;;12.63;;
48935;SDS011;34745;52.276;10.528;2023-02-15T09:41:34;25.73;;;15.33;;
48935;SDS011;34745;52.276;10.528;2023-02-15T09:44:18;24.93;;;16.20;;
48935;SDS011;34745;52.276;10.528;2023-02-15T09:46:59;19.03;;;13.90;;
48935;SDS011;34745;52.276;10.528;2023-02-15T09:49:33;21.77;;;14.40;;
48935;SDS011;34745;52.276;10.528;2023-02-15T09:52:16;18.67;;;13.23;;
48935;SDS011;34745;52.276;10.528;2023-02-15T09:55:12;19.10;;;12.77;;
48935;SDS011;34745;52.276;10.528;2023-02-15T09:57:51;13.90;;;11.43;;
48935;SDS011;34745;52.276;10.528;2023-02-15T10:00:27;18.93;;;12.10;;
48935;SDS011;34745;52.276;10.528;2023-02-15T10:03:05;18.40;;;12.60;;
48935;SDS011;34745;52.276;10.528;2023-02-15T10:05:43;13.43;;;10.83;;
48935;SDS011;34745;52.276;10.528;2023-02-15T10:11:14;14.87;;;10.83;;
48935;SDS011;34745;52.276;10.528;2023-02-15T10:17:12;12.57;;;9.30;;
48935;SDS011;34745;52.276;10.528;2023-02-15T10:19:51;10.93;;;8.37;;
48935;SDS011;34745;52.276;10.528;2023-02-15T10:22:34;14.10;;;9.17;;
48935;SDS011;34745;52.276;10.528;2023-02-15T10:25:12;15.27;;;9.73;;
48935;SDS011;34745;52.276;10.528;2023-02-15T10:27:57;25.23;;;10.33;;
48935;SDS011;34745;52.276;10.528;2023-02-15T10:30:34;13.43;;;10.03;;
48935;SDS011;34745;52.276;10.528;2023-02-15T10:33:10;13.57;;;9.30;;
48935;SDS011;34745;52.276;10.528;2023-02-15T10:35:51;15.40;;;10.23;;
48935;SDS011;34745;52.276;10.528;2023-02-15T10:38:28;12.67;;;9.10;;
48935;SDS011;34745;52.276;10.528;2023-02-15T10:41:05;21.77;;;9.47;;
48935;SDS011;34745;52.276;10.528;2023-02-15T10:43:46;13.27;;;9.13;;
48935;SDS011;34745;52.276;10.528;2023-02-15T10:46:31;13.17;;;9.10;;
48935;SDS011;34745;52.276;10.528;2023-02-15T10:52:20;11.33;;;7.90;;
48935;SDS011;34745;52.276;10.528;2023-02-15T10:54:57;13.13;;;7.40;;
48935;SDS011;34745;52.276;10.528;2023-02-15T10:57:31;13.87;;;7.50;;
48935;SDS011;34745;52.276;10.528;2023-02-15T11:00:07;11.30;;;7.23;;
48935;SDS011;34745;52.276;10.528;2023-02-15T11:02:45;9.13;;;6.93;;
48935;SDS011;34745;52.276;10.528;2023-02-15T11:05:25;15.37;;;7.07;;
48935;SDS011;34745;52.276;10.528;2023-02-15T11:08:02;7.83;;;6.57;;
48935;SDS011;34745;52.276;10.528;2023-02-15T11:10:34;9.73;;;6.87;;
48935;SDS011;34745;52.276;10.528;2023-02-15T11:13:06;7.27;;;6.47;;
48935;SDS011;34745;52.276;10.528;2023-02-15T11:15:39;7.70;;;6.67;;
48935;SDS011;34745;52.276;10.528;2023-02-15T11:18:11;9.67;;;6.70;;
48935;SDS011;34745;52.276;10.528;2023-02-15T11:20:45;11.87;;;6.93;;
48935;SDS011;34745;52.276;10.528;2023-02-15T11:23:19;6.70;;;5.97;;
48935;SDS011;34745;52.276;10.528;2023-02-15T11:25:52;7.47;;;6.13;;
48935;SDS011;34745;52.276;10.528;2023-02-15T11:28:23;11.93;;;6.83;;
48935;SDS011;34745;52.276;10.528;2023-02-15T11:30:55;10.17;;;6.67;;
48935;SDS011;34745;52.276;10.528;2023-02-15T11:33:25;8.40;;;6.83;;
48935;SDS011;34745;52.276;10.528;2023-02-15T11:35:57;9.10;;;7.30;;
48935;SDS011;34745;52.276;10.528;2023-02-15T11:38:28;9.80;;;6.87;;
48935;SDS011;34745;52.276;10.528;2023-02-15T11:40:59;9.50;;;6.93;;
48935;SDS011;34745;52.276;10.528;2023-02-15T11:43:33;9.17;;;6.83;;
48935;SDS011;34745;52.276;10.528;2023-02-15T11:46:03;8.13;;;6.30;;
48935;SDS011;34745;52.276;10.528;2023-02-15T11:48:32;8.70;;;7.13;;
48935;SDS011;34745;52.276;10.528;2023-02-15T11:51:00;8.00;;;7.20;;
48935;SDS011;34745;52.276;10.528;2023-02-15T11:53:31;8.17;;;7.10;;
48935;SDS011;34745;52.276;10.528;2023-02-15T11:56:00;8.77;;;7.30;;
48935;SDS011;34745;52.276;10.528;2023-02-15T11:58:30;10.60;;;7.53;;
48935;SDS011;34745;52.276;10.528;2023-02-15T12:01:03;9.57;;;7.47;;
48935;SDS011;34745;52.276;10.528;2023-02-15T12:03:42;10.83;;;7.80;;
48935;SDS011;34745;52.276;10.528;2023-02-15T12:06:14;9.23;;;6.97;;
48935;SDS011;34745;52.276;10.528;2023-02-15T12:08:46;11.30;;;7.50;;
48935;SDS011;34745;52.276;10.528;2023-02-15T12:11:19;9.97;;;7.83;;
48935;SDS011;34745;52.276;10.528;2023-02-15T12:13:55;9.63;;;8.00;;
48935;SDS011;34745;52.276;10.528;2023-02-15T12:16:25;8.23;;;6.87;;
48935;SDS011;34745;52.276;10.528;2023-02-15T12:18:54;10.90;;;7.97;;
48935;SDS011;34745;52.276;10.528;2023-02-15T12:21:25;10.30;;;7.70;;
48935;SDS011;34745;52.276;10.528;2023-02-15T12:23:55;10.60;;;7.73;;
48935;SDS011;34745;52.276;10.528;2023-02-15T12:26:25;14.50;;;8.30;;
48935;SDS011;34745;52.276;10.528;2023-02-15T12:28:55;9.47;;;7.47;;
48935;SDS011;34745;52.276;10.528;2023-02-15T12:31:28;10.43;;;7.65;;
48935;SDS011;34745;52.276;10.528;2023-02-15T12:34:00;9.30;;;7.63;;
48935;SDS011;34745;52.276;10.528;2023-02-15T12:36:40;7.93;;;7.13;;
48935;SDS011;34745;52.276;10.528;2023-02-15T12:39:16;11.38;;;7.85;;
48935;SDS011;34745;52.276;10.528;2023-02-15T12:41:49;8.90;;;7.70;;
48935;SDS011;34745;52.276;10.528;2023-02-15T12:44:29;9.90;;;7.28;;
48935;SDS011;34745;52.276;10.528;2023-02-15T12:46:59;10.43;;;7.80;;
48935;SDS011;34745;52.276;10.528;2023-02-15T12:49:29;9.20;;;7.63;;
48935;SDS011;34745;52.276;10.528;2023-02-15T12:51:58;11.65;;;8.32;;
48935;SDS011;34745;52.276;10.528;2023-02-15T12:54:31;10.27;;;8.40;;
48935;SDS011;34745;52.276;10.528;2023-02-15T12:57:13;9.02;;;8.13;;
48935;SDS011;34745;52.276;10.528;2023-02-15T12:59:50;9.32;;;8.30;;
48935;SDS011;34745;52.276;10.528;2023-02-15T13:02:23;11.32;;;8.95;;
48935;SDS011;34745;52.276;10.528;2023-02-15T13:04:57;14.10;;;8.88;;
48935;SDS011;34745;52.276;10.528;2023-02-15T13:07:35;13.90;;;8.88;;
48935;SDS011;34745;52.276;10.528;2023-02-15T13:10:04;9.68;;;8.68;;
48935;SDS011;34745;52.276;10.528;2023-02-15T13:12:46;9.60;;;8.55;;
48935;SDS011;34745;52.276;10.528;2023-02-15T13:15:22;12.80;;;8.80;;
48935;SDS011;34745;52.276;10.528;2023-02-15T13:17:52;12.35;;;8.63;;
48935;SDS011;34745;52.276;10.528;2023-02-15T13:20:23;13.73;;;8.80;;
48935;SDS011;34745;52.276;10.528;2023-02-15T13:22:54;10.43;;;9.32;;
48935;SDS011;34745;52.276;10.528;2023-02-15T13:25:25;9.70;;;8.48;;
48935;SDS011;34745;52.276;10.528;2023-02-15T13:27:56;10.75;;;8.98;;
48935;SDS011;34745;52.276;10.528;2023-02-15T13:30:27;9.65;;;8.40;;
48935;SDS011;34745;52.276;10.528;2023-02-15T13:32:59;10.88;;;9.27;;
48935;SDS011;34745;52.276;10.528;2023-02-15T13:35:33;9.98;;;8.98;;
48935;SDS011;34745;52.276;10.528;2023-02-15T13:38:15;12.02;;;9.75;;
48935;SDS011;34745;52.276;10.528;2023-02-15T13:41:03;10.40;;;9.30;;
48935;SDS011;34745;52.276;10.528;2023-02-15T13:43:36;15.20;;;9.93;;
48935;SDS011;34745;52.276;10.528;2023-02-15T13:46:20;11.68;;;9.43;;
48935;SDS011;34745;52.276;10.528;2023-02-15T13:49:08;12.55;;;10.35;;
48935;SDS011;34745;52.276;10.528;2023-02-15T13:51:48;11.57;;;9.82;;
48935;SDS011;34745;52.276;10.528;2023-02-15T13:54:27;10.57;;;9.15;;
48935;SDS011;34745;52.276;10.528;2023-02-15T13:57:25;14.57;;;9.90;;
48935;SDS011;34745;52.276;10.528;2023-02-15T14:00:14;13.07;;;10.30;;
48935;SDS011;34745;52.276;10.528;2023-02-15T14:06:11;12.52;;;10.10;;
48935;SDS011;34745;52.276;10.528;2023-02-15T14:08:52;17.00;;;10.50;;
48935;SDS011;34745;52.276;10.528;2023-02-15T14:11:29;13.43;;;10.75;;
48935;SDS011;34745;52.276;10.528;2023-02-15T14:14:11;13.70;;;10.98;;
48935;SDS011;34745;52.276;10.528;2023-02-15T14:17:09;13.40;;;9.98;;
48935;SDS011;34745;52.276;10.528;2023-02-15T14:19:43;13.38;;;10.25;;
48935;SDS011;34745;52.276;10.528;2023-02-15T14:22:18;17.75;;;10.02;;
48935;SDS011;34745;52.276;10.528;2023-02-15T14:24:57;14.23;;;10.73;;
48935;SDS011;34745;52.276;10.528;2023-02-15T14:27:40;14.50;;;11.60;;
48935;SDS011;34745;52.276;10.528;2023-02-15T14:30:13;16.97;;;11.57;;
48935;SDS011;34745;52.276;10.528;2023-02-15T14:32:45;14.30;;;11.70;;
48935;SDS011;34745;52.276;10.528;2023-02-15T14:35:17;16.43;;;11.73;;
48935;SDS011;34745;52.276;10.528;2023-02-15T14:37:46;19.27;;;11.60;;
48935;SDS011;34745;52.276;10.528;2023-02-15T14:40:26;15.03;;;11.73;;
48935;SDS011;34745;52.276;10.528;2023-02-15T14:43:21;14.77;;;11.33;;
48935;SDS011;34745;52.276;10.528;2023-02-15T14:45:58;20.27;;;12.33;;
48935;SDS011;34745;52.276;10.528;2023-02-15T14:48:33;16.83;;;12.82;;
48935;SDS011;34745;52.276;10.528;2023-02-15T14:51:05;16.13;;;12.40;;
48935;SDS011;34745;52.276;10.528;2023-02-15T14:53:34;18.00;;;12.57;;
48935;SDS011;34745;52.276;10.528;2023-02-15T14:56:15;18.10;;;12.93;;
48935;SDS011;34745;52.276;10.528;2023-02-15T14:58:59;18.83;;;11.83;;